Reddick, Illinois
Current Conditions -  °F | °C
As of 10:15 PM on Monday 22 Dec 2014 (Local Time) from KIKK Reporting Station
Light Rain Light Rain  
Wind Chill:   Ceiling: 800
Heat Index:   Visibility: 2.5mi
Dew Point:   Wind: 15mph
Humidity: 97%   Direction: 110°ESE
Pressure: 29.6"   Gusts: NA
Location:  41.1°N, 88.25°W
Report Text: KIKK 230415Z AUTO 11013KT 2 1/2SM -RA OVC008 05/04 A2960 RMK AO2 P0001 T00480043
Loading
Personal Weather Stations






























Interactive Weather Map New forecast layout! Learn more

10-Day Weather Forecast

Advertisements
Track Severe Weather on mobile